Search for airport 
image banner adimage banner adimage banner ad
image banner ad

IA08 - Riedesel Private

Located in Lohrville, United States

ICAO - IA08, IATA -

Data provided by Airmate  

General information

Coordinates: N42°16'41" W94°33'6"
Elevation is 1150 feet MSL.
Magnetic variation is 05° East
View others Airports in Iowa

Operational data

Special qualification required
Current time UTC:
Current local time:
Weather at : KCIN - Arthur N Neu ( 32 km )
METAR: KCIN 150935Z AUTO 00000KT 10SM CLR 13/11 A3012 RMK AO2
View NOTAMs / SUP AIP / TFR affecting this airport [VIEW]
Communications frequencies: [VIEW]

Runways:

RWY identifierQFULength (ft)Width (ft)SurfaceLDA (ft)
17262066GRASS
35262066GRASS

Airport contact information

Address: Lohrville United States

Satellite view of IA08